createdAt,value
2017-09-28T00:01:41.317Z,13.27
2017-09-28T00:04:10.588Z,12.67
2017-09-28T00:06:40.054Z,12.37
2017-09-28T00:09:09.351Z,13.77
2017-09-28T00:11:38.634Z,12.50
2017-09-28T00:14:07.904Z,13.70
2017-09-28T00:16:37.195Z,15.70
2017-09-28T00:19:06.487Z,12.67
2017-09-28T00:21:35.762Z,13.63
2017-09-28T00:24:05.044Z,14.20
2017-09-28T00:26:34.456Z,15.07
2017-09-28T00:29:04.545Z,15.03
2017-09-28T00:31:34.613Z,16.43
2017-09-28T00:34:03.927Z,13.70
2017-09-28T00:36:33.358Z,14.90
2017-09-28T00:39:02.609Z,15.53
2017-09-28T00:41:31.905Z,14.20
2017-09-28T00:44:01.273Z,14.33
2017-09-28T00:46:30.559Z,14.17
2017-09-28T00:48:59.879Z,14.07
2017-09-28T00:51:29.164Z,15.50
2017-09-28T00:53:58.438Z,14.47
2017-09-28T00:56:27.997Z,14.97
2017-09-28T00:58:57.294Z,14.97
2017-09-28T01:01:26.566Z,14.37
2017-09-28T01:03:55.843Z,14.77
2017-09-28T01:06:25.209Z,13.60
2017-09-28T01:08:56.007Z,13.67
2017-09-28T01:11:25.367Z,14.27
2017-09-28T01:13:54.660Z,14.77
2017-09-28T01:16:24.025Z,14.13
2017-09-28T01:18:53.329Z,15.13
2017-09-28T01:21:22.675Z,15.97
2017-09-28T01:23:51.964Z,14.00
2017-09-28T01:26:21.233Z,15.87
2017-09-28T01:28:50.559Z,16.00
2017-09-28T01:31:19.930Z,15.27
2017-09-28T01:33:49.202Z,13.80
2017-09-28T01:36:18.521Z,14.20
2017-09-28T01:38:47.905Z,14.93
2017-09-28T01:41:17.178Z,14.57
2017-09-28T01:43:46.628Z,13.90
2017-09-28T01:46:15.950Z,15.50
2017-09-28T01:48:46.218Z,14.87
2017-09-28T01:51:15.578Z,15.50
2017-09-28T01:53:44.893Z,15.73
2017-09-28T01:56:15.146Z,13.80
2017-09-28T01:58:44.431Z,14.90
2017-09-28T02:01:13.712Z,14.27
2017-09-28T02:03:43.135Z,13.80
2017-09-28T02:06:12.455Z,15.27
2017-09-28T02:08:41.897Z,15.97
2017-09-28T02:11:11.171Z,13.47
2017-09-28T02:13:40.444Z,13.50
2017-09-28T02:16:10.402Z,16.30
2017-09-28T02:18:39.681Z,15.57
2017-09-28T02:21:08.962Z,13.43
2017-09-28T02:23:38.222Z,14.30
2017-09-28T02:26:07.654Z,14.33
2017-09-28T02:28:37.695Z,13.20
2017-09-28T02:31:06.970Z,12.70
2017-09-28T02:33:37.027Z,13.10
2017-09-28T02:36:06.302Z,12.90
2017-09-28T02:38:36.348Z,14.30
2017-09-28T02:41:05.606Z,14.67
2017-09-28T02:43:35.035Z,12.37
2017-09-28T02:46:05.050Z,13.43
2017-09-28T02:48:34.441Z,14.97
2017-09-28T02:51:04.571Z,14.80
2017-09-28T02:53:34.614Z,12.27
2017-09-28T02:56:03.982Z,12.47
2017-09-28T02:58:34.025Z,12.93
2017-09-28T03:01:03.290Z,12.77
2017-09-28T03:03:32.563Z,13.27
2017-09-28T03:06:01.840Z,12.30
2017-09-28T03:08:31.089Z,13.53
2017-09-28T03:11:00.435Z,12.30
2017-09-28T03:13:29.695Z,13.83
2017-09-28T03:15:58.968Z,13.23
2017-09-28T03:18:28.307Z,12.03
2017-09-28T03:20:58.369Z,12.00
2017-09-28T03:23:27.745Z,13.30
2017-09-28T03:25:56.977Z,13.90
2017-09-28T03:28:26.294Z,12.17
2017-09-28T03:30:55.719Z,12.17
2017-09-28T03:33:24.990Z,13.10
2017-09-28T03:35:54.457Z,13.20
2017-09-28T03:38:24.498Z,12.40
2017-09-28T03:40:53.784Z,13.20
2017-09-28T03:43:23.180Z,10.73
2017-09-28T03:45:53.293Z,12.80
2017-09-28T03:48:23.439Z,13.60
2017-09-28T03:50:52.737Z,11.47
2017-09-28T03:53:22.018Z,12.00
2017-09-28T03:55:52.056Z,11.77
2017-09-28T03:58:21.358Z,13.27
2017-09-28T04:00:50.793Z,11.10
2017-09-28T04:03:20.074Z,10.93
2017-09-28T04:05:49.454Z,11.77
2017-09-28T04:08:18.712Z,12.77
2017-09-28T04:10:47.998Z,11.33
2017-09-28T04:13:17.301Z,11.07
2017-09-28T04:15:46.545Z,12.63
2017-09-28T04:18:16.589Z,11.00
2017-09-28T04:20:45.908Z,12.47
2017-09-28T04:23:15.313Z,11.37
2017-09-28T04:25:44.566Z,11.83
2017-09-28T04:28:13.851Z,11.90
2017-09-28T04:30:43.200Z,11.97
2017-09-28T04:33:12.618Z,12.90
2017-09-28T04:35:41.957Z,12.60
2017-09-28T04:38:11.303Z,12.23
2017-09-28T04:40:40.549Z,12.30
2017-09-28T04:43:09.806Z,13.17
2017-09-28T04:45:39.833Z,11.90
2017-09-28T04:48:09.202Z,11.57
2017-09-28T04:50:38.516Z,13.43
2017-09-28T04:53:07.858Z,11.70
2017-09-28T04:55:37.118Z,12.60
2017-09-28T04:58:06.477Z,13.40
2017-09-28T05:00:35.822Z,13.07
2017-09-28T05:03:05.866Z,11.30
2017-09-28T05:05:35.247Z,11.67
2017-09-28T05:08:05.288Z,13.30
2017-09-28T05:10:34.550Z,12.73
2017-09-28T05:13:04.594Z,12.93
2017-09-28T05:15:33.882Z,14.73
2017-09-28T05:18:03.210Z,12.07
2017-09-28T05:20:32.522Z,13.17
2017-09-28T05:23:01.778Z,12.20
2017-09-28T05:25:31.032Z,13.73
2017-09-28T05:28:00.325Z,14.33
2017-09-28T05:30:29.678Z,13.50
2017-09-28T05:32:59.722Z,12.30
2017-09-28T05:35:29.438Z,14.10
2017-09-28T05:37:58.669Z,13.70
2017-09-28T05:40:27.949Z,13.97
2017-09-28T05:42:57.386Z,14.43
2017-09-28T05:45:26.670Z,12.27
2017-09-28T05:47:55.931Z,12.93
2017-09-28T05:50:25.210Z,13.27
2017-09-28T05:52:54.633Z,14.17
2017-09-28T05:55:24.659Z,14.93
2017-09-28T05:57:54.063Z,14.50
2017-09-28T06:00:24.085Z,13.50
2017-09-28T06:02:53.674Z,14.67
2017-09-28T06:05:22.931Z,13.00
2017-09-28T06:07:52.214Z,13.47
2017-09-28T06:10:21.582Z,14.87
2017-09-28T06:12:51.627Z,13.50
2017-09-28T06:15:20.895Z,14.90
2017-09-28T06:17:50.148Z,13.30
2017-09-28T06:20:19.561Z,14.63
2017-09-28T06:22:48.921Z,12.43
2017-09-28T06:25:18.942Z,14.30
2017-09-28T06:27:48.229Z,13.73
2017-09-28T06:30:17.522Z,11.73
2017-09-28T06:32:46.799Z,12.53
2017-09-28T06:35:16.081Z,11.47
2017-09-28T06:37:45.342Z,12.40
2017-09-28T06:40:16.141Z,11.53
2017-09-28T06:42:45.402Z,11.77
2017-09-28T06:45:14.689Z,11.33
2017-09-28T06:47:43.952Z,11.00
2017-09-28T06:50:13.230Z,10.93
2017-09-28T06:52:42.547Z,12.27
2017-09-28T06:55:11.998Z,12.97
2017-09-28T06:57:41.297Z,13.70
2017-09-28T07:00:10.563Z,11.10
2017-09-28T07:02:40.013Z,11.70
2017-09-28T07:05:09.289Z,11.33
2017-09-28T07:07:39.321Z,9.03
2017-09-28T07:10:09.593Z,11.13
2017-09-28T07:12:38.881Z,10.37
2017-09-28T07:15:08.170Z,11.60
2017-09-28T07:17:37.468Z,10.60
2017-09-28T07:20:06.719Z,9.50
2017-09-28T07:22:36.238Z,11.07
2017-09-28T07:25:06.958Z,9.60
2017-09-28T07:27:36.230Z,10.60
2017-09-28T07:30:05.617Z,9.03
2017-09-28T07:32:35.605Z,10.17
2017-09-28T07:35:04.928Z,9.37
2017-09-28T07:37:34.155Z,10.17
2017-09-28T07:40:04.235Z,9.63
2017-09-28T07:42:34.269Z,9.77
2017-09-28T07:45:03.666Z,10.90
2017-09-28T07:47:32.954Z,15.03
2017-09-28T07:50:02.995Z,16.53
2017-09-28T07:52:32.279Z,15.90
2017-09-28T07:55:02.318Z,15.87
2017-09-28T07:57:31.791Z,17.70
2017-09-28T08:00:02.036Z,18.70
2017-09-28T08:02:31.278Z,19.57
2017-09-28T08:05:00.557Z,17.13
2017-09-28T08:07:29.936Z,16.73
2017-09-28T08:09:59.338Z,18.60
2017-09-28T08:12:28.710Z,19.55
2017-09-28T08:14:57.994Z,18.27
2017-09-28T08:17:27.278Z,17.57
2017-09-28T08:19:56.556Z,18.23
2017-09-28T08:22:25.823Z,17.80
2017-09-28T08:24:55.843Z,17.60
2017-09-28T08:27:25.143Z,18.30
2017-09-28T08:30:01.769Z,18.10
2017-09-28T08:32:31.043Z,18.67
2017-09-28T08:35:00.298Z,20.07
2017-09-28T08:37:29.607Z,19.50
2017-09-28T08:39:59.771Z,18.10
2017-09-28T08:42:29.801Z,18.83
2017-09-28T08:44:59.049Z,18.87
2017-09-28T08:47:28.309Z,20.53
2017-09-28T08:49:57.598Z,20.40
2017-09-28T08:52:26.864Z,21.80
2017-09-28T08:54:57.127Z,21.03
2017-09-28T08:57:26.403Z,22.07
2017-09-28T08:59:55.797Z,20.90
2017-09-28T09:02:25.864Z,21.20
2017-09-28T09:04:55.137Z,20.40
2017-09-28T09:07:24.406Z,18.10
2017-09-28T09:09:53.837Z,19.57
2017-09-28T09:12:23.247Z,18.23
2017-09-28T09:14:53.240Z,18.50
2017-09-28T09:17:23.064Z,17.03
2017-09-28T09:19:52.271Z,16.33
2017-09-28T09:22:21.695Z,16.60
2017-09-28T09:24:50.919Z,17.50
2017-09-28T09:27:20.387Z,18.37
2017-09-28T09:29:49.658Z,19.77
2017-09-28T09:32:19.015Z,17.07
2017-09-28T09:34:48.401Z,18.87
2017-09-28T09:37:17.708Z,18.17
2017-09-28T09:39:46.978Z,17.50
2017-09-28T09:42:17.029Z,16.60
2017-09-28T09:44:46.378Z,18.70
2017-09-28T09:47:16.418Z,17.73
2017-09-28T09:49:46.564Z,19.37
2017-09-28T09:52:17.305Z,18.60
2017-09-28T09:54:46.679Z,17.10
2017-09-28T09:57:16.702Z,16.90
2017-09-28T09:59:45.996Z,19.23
2017-09-28T10:02:16.040Z,21.60
2017-09-28T10:04:45.312Z,25.30
2017-09-28T10:07:20.551Z,23.23
2017-09-28T10:09:56.443Z,23.30
2017-09-28T10:12:36.001Z,21.00
2017-09-28T10:15:08.118Z,23.53
2017-09-28T10:17:43.390Z,28.00
2017-09-28T10:20:12.650Z,25.43
2017-09-28T10:22:41.957Z,28.10
2017-09-28T10:25:11.236Z,26.10
2017-09-28T10:27:40.496Z,23.53
2017-09-28T10:30:09.802Z,26.50
2017-09-28T10:32:39.087Z,29.23
2017-09-28T10:35:08.367Z,28.20
2017-09-28T10:37:38.410Z,27.07
2017-09-28T10:40:08.815Z,27.50
2017-09-28T10:42:38.929Z,25.83
2017-09-28T10:45:08.978Z,24.67
2017-09-28T10:47:38.278Z,25.13
2017-09-28T10:50:07.685Z,24.27
2017-09-28T10:52:37.722Z,23.90
2017-09-28T10:55:06.989Z,25.77
2017-09-28T10:57:37.022Z,24.53
2017-09-28T11:00:06.309Z,23.97
2017-09-28T11:02:36.443Z,24.07
2017-09-28T11:05:05.921Z,24.37
2017-09-28T11:07:36.779Z,22.97
2017-09-28T11:10:06.045Z,23.63
2017-09-28T11:12:37.038Z,23.13
2017-09-28T11:15:06.431Z,23.30
2017-09-28T11:17:35.766Z,22.57
2017-09-28T11:20:05.217Z,22.57
2017-09-28T11:22:35.288Z,23.97
2017-09-28T11:25:04.545Z,22.37
2017-09-28T11:27:33.813Z,21.30
2017-09-28T11:30:03.116Z,19.87
2017-09-28T11:32:32.537Z,21.60
2017-09-28T11:35:02.593Z,21.30
2017-09-28T11:37:32.583Z,22.70
2017-09-28T11:40:02.825Z,23.17
2017-09-28T11:42:32.825Z,19.77
2017-09-28T11:45:02.886Z,21.17
2017-09-28T11:47:32.265Z,22.90
2017-09-28T11:50:01.534Z,21.53
2017-09-28T11:52:30.868Z,22.87
2017-09-28T11:55:00.172Z,20.30
2017-09-28T11:57:29.391Z,21.70
2017-09-28T11:59:58.658Z,20.80
2017-09-28T12:02:28.673Z,21.63
2017-09-28T12:04:58.716Z,23.33
2017-09-28T12:07:27.986Z,22.00
2017-09-28T12:09:57.253Z,22.73
2017-09-28T12:12:26.699Z,20.20
2017-09-28T12:14:56.718Z,22.07
2017-09-28T12:17:26.772Z,21.93
2017-09-28T12:19:56.881Z,20.37
2017-09-28T12:22:26.168Z,21.57
2017-09-28T12:24:56.194Z,20.63
2017-09-28T12:27:25.790Z,21.17
2017-09-28T12:29:55.913Z,19.23
2017-09-28T12:32:25.276Z,21.27
2017-09-28T12:34:54.562Z,20.20
2017-09-28T12:37:23.825Z,22.00
2017-09-28T12:39:53.115Z,19.57
2017-09-28T12:42:23.134Z,20.10
2017-09-28T12:44:52.409Z,20.80
2017-09-28T12:47:21.668Z,20.20
2017-09-28T12:49:50.992Z,20.27
2017-09-28T12:52:20.310Z,20.67
2017-09-28T12:54:49.562Z,19.20
2017-09-28T12:57:18.847Z,19.83
2017-09-28T12:59:48.102Z,20.10
2017-09-28T13:02:17.453Z,19.83
2017-09-28T13:04:47.654Z,18.87
2017-09-28T13:07:16.956Z,17.80
2017-09-28T13:09:46.220Z,20.13
2017-09-28T13:12:15.545Z,18.03
2017-09-28T13:14:44.805Z,18.53
2017-09-28T13:17:14.093Z,17.33
2017-09-28T13:19:43.390Z,18.67
2017-09-28T13:22:12.659Z,19.30
2017-09-28T13:24:42.691Z,20.13
2017-09-28T13:27:12.078Z,21.40
2017-09-28T13:29:43.028Z,21.10
2017-09-28T13:32:13.064Z,18.90
2017-09-28T13:34:43.137Z,19.57
2017-09-28T13:37:12.396Z,17.90
2017-09-28T13:39:41.649Z,16.97
2017-09-28T13:42:10.997Z,17.47
2017-09-28T13:44:40.294Z,20.20
2017-09-28T13:47:09.538Z,17.73
2017-09-28T13:49:38.955Z,19.40
2017-09-28T13:52:08.381Z,17.17
2017-09-28T13:54:37.804Z,21.37
2017-09-28T13:57:07.357Z,19.47
2017-09-28T13:59:36.638Z,19.17
2017-09-28T14:02:06.230Z,19.90
2017-09-28T14:04:35.487Z,19.77
2017-09-28T14:07:04.795Z,17.80
2017-09-28T14:09:34.830Z,20.17
2017-09-28T14:12:04.883Z,18.40
2017-09-28T14:14:34.133Z,18.83
2017-09-28T14:17:04.167Z,16.37
2017-09-28T14:19:34.386Z,15.73
2017-09-28T14:22:04.416Z,16.90
2017-09-28T14:24:33.721Z,15.03
2017-09-28T14:27:02.979Z,15.97
2017-09-28T14:29:34.035Z,15.83
2017-09-28T14:32:03.291Z,14.10
2017-09-28T14:34:32.677Z,14.07
2017-09-28T14:37:01.945Z,16.80
2017-09-28T14:39:31.968Z,18.13
2017-09-28T14:42:01.398Z,16.00
2017-09-28T14:44:30.695Z,15.00
2017-09-28T14:46:59.986Z,16.00
2017-09-28T14:49:29.299Z,16.50
2017-09-28T14:51:59.354Z,17.23
2017-09-28T14:54:28.626Z,16.50
2017-09-28T14:56:58.610Z,15.43
2017-09-28T14:59:28.889Z,16.33
2017-09-28T15:01:58.157Z,15.87
2017-09-28T15:04:27.425Z,17.90
2017-09-28T15:06:57.473Z,17.30
2017-09-28T15:09:26.733Z,18.40
2017-09-28T15:11:55.990Z,16.20
2017-09-28T15:14:25.282Z,20.00
2017-09-28T15:16:54.558Z,18.37
2017-09-28T15:19:23.833Z,16.80
2017-09-28T15:21:53.115Z,17.57
2017-09-28T15:24:22.576Z,16.47
2017-09-28T15:26:52.595Z,13.50
2017-09-28T15:29:22.642Z,16.17
2017-09-28T15:31:51.901Z,15.87
2017-09-28T15:34:21.950Z,18.10
2017-09-28T15:36:51.240Z,13.37
2017-09-28T15:39:20.514Z,13.20
2017-09-28T15:41:49.798Z,15.80
2017-09-28T15:44:19.042Z,17.20
2017-09-28T15:46:48.350Z,14.27
2017-09-28T15:49:17.771Z,15.97
2017-09-28T15:51:47.042Z,16.10
2017-09-28T15:54:16.338Z,11.20
2017-09-28T15:56:45.602Z,10.80
2017-09-28T15:59:14.961Z,11.80
2017-09-28T16:01:44.207Z,10.27
2017-09-28T16:04:13.641Z,11.13
2017-09-28T16:06:43.698Z,10.80
2017-09-28T16:09:12.975Z,10.20
2017-09-28T16:11:42.255Z,9.67
2017-09-28T16:14:11.655Z,10.67
2017-09-28T16:16:41.034Z,9.70
2017-09-28T16:19:10.717Z,9.70
2017-09-28T16:21:40.190Z,9.87
2017-09-28T16:24:10.225Z,10.70
2017-09-28T16:26:39.519Z,9.90
2017-09-28T16:29:08.790Z,11.17
2017-09-28T16:31:38.050Z,10.83
2017-09-28T16:34:07.434Z,10.80
2017-09-28T16:36:36.830Z,10.70
2017-09-28T16:39:06.325Z,10.53
2017-09-28T16:41:36.390Z,11.50
2017-09-28T16:44:05.751Z,9.97
2017-09-28T16:46:35.813Z,11.17
2017-09-28T16:49:05.118Z,10.60
2017-09-28T16:51:34.404Z,11.50
2017-09-28T16:54:03.666Z,10.60
2017-09-28T16:56:32.943Z,11.47
2017-09-28T16:59:02.217Z,8.63
2017-09-28T17:01:31.484Z,9.47
2017-09-28T17:04:00.733Z,8.93
2017-09-28T17:06:30.038Z,10.17
2017-09-28T17:08:59.391Z,10.40
2017-09-28T17:11:28.639Z,11.57
2017-09-28T17:13:57.931Z,10.40
2017-09-28T17:16:27.185Z,9.97
2017-09-28T17:18:56.598Z,10.50
2017-09-28T17:21:26.626Z,10.43
2017-09-28T17:23:55.893Z,11.07
2017-09-28T17:26:25.152Z,9.83
2017-09-28T17:28:54.623Z,10.77
2017-09-28T17:31:24.750Z,11.00
2017-09-28T17:33:54.036Z,10.50
2017-09-28T17:36:23.462Z,10.50
2017-09-28T17:38:52.814Z,11.00
2017-09-28T17:41:22.072Z,9.83
2017-09-28T17:43:51.571Z,10.60
2017-09-28T17:46:20.824Z,10.70
2017-09-28T17:48:50.898Z,11.73
2017-09-28T17:51:20.181Z,10.87
2017-09-28T17:53:49.464Z,13.50
2017-09-28T17:56:19.474Z,12.93
2017-09-28T17:58:49.513Z,12.30
2017-09-28T18:01:18.771Z,11.37
2017-09-28T18:03:48.042Z,11.60
2017-09-28T18:06:17.408Z,11.70
2017-09-28T18:08:46.670Z,11.73
2017-09-28T18:11:15.960Z,11.73
2017-09-28T18:13:45.243Z,11.00
2017-09-28T18:16:14.614Z,10.73
2017-09-28T18:18:45.046Z,12.60
2017-09-28T18:21:14.441Z,13.83
2017-09-28T18:23:43.761Z,11.67
2017-09-28T18:26:14.544Z,10.83
2017-09-28T18:28:43.836Z,12.03
2017-09-28T18:31:13.179Z,9.80
2017-09-28T18:33:43.296Z,11.90
2017-09-28T18:36:13.357Z,11.67
2017-09-28T18:38:42.609Z,9.90
2017-09-28T18:41:11.891Z,11.30
2017-09-28T18:43:41.176Z,14.07
2017-09-28T18:46:10.433Z,12.67
2017-09-28T18:48:39.711Z,11.00
2017-09-28T18:51:09.772Z,11.30
2017-09-28T18:53:39.037Z,11.23
2017-09-28T18:56:08.338Z,12.00
2017-09-28T18:58:37.624Z,10.80
2017-09-28T19:01:06.895Z,10.37
2017-09-28T19:03:36.285Z,10.47
2017-09-28T19:06:05.546Z,11.77
2017-09-28T19:08:34.826Z,10.20
2017-09-28T19:11:04.096Z,10.50
2017-09-28T19:13:33.381Z,10.57
2017-09-28T19:16:03.415Z,10.50
2017-09-28T19:18:32.797Z,10.67
2017-09-28T19:21:02.087Z,10.87
2017-09-28T19:23:32.132Z,10.10
2017-09-28T19:26:01.419Z,15.60
2017-09-28T19:28:30.753Z,12.73
2017-09-28T19:30:59.990Z,10.90
2017-09-28T19:33:29.281Z,10.50
2017-09-28T19:35:58.605Z,12.63
2017-09-28T19:38:27.890Z,10.90
2017-09-28T19:40:57.301Z,12.37
2017-09-28T19:43:27.344Z,12.27
2017-09-28T19:45:56.658Z,12.90
2017-09-28T19:48:25.913Z,13.17
2017-09-28T19:50:55.214Z,13.30
2017-09-28T19:53:24.615Z,11.80
2017-09-28T19:55:53.897Z,11.40
2017-09-28T19:58:23.193Z,12.60
2017-09-28T20:00:52.458Z,12.13
2017-09-28T20:03:21.748Z,10.93
2017-09-28T20:05:51.028Z,10.90
2017-09-28T20:08:20.390Z,10.13
2017-09-28T20:10:49.668Z,10.37
2017-09-28T20:13:18.942Z,11.20
2017-09-28T20:15:48.226Z,10.80
2017-09-28T20:18:18.441Z,9.43
2017-09-28T20:20:47.722Z,11.20
2017-09-28T20:23:16.979Z,10.83
2017-09-28T20:25:46.241Z,11.53
2017-09-28T20:28:17.044Z,10.17
2017-09-28T20:30:46.417Z,12.20
2017-09-28T20:33:16.542Z,10.33
2017-09-28T20:35:45.852Z,11.10
2017-09-28T20:38:15.899Z,10.87
2017-09-28T20:40:45.207Z,9.63
2017-09-28T20:43:14.565Z,9.33
2017-09-28T20:45:44.598Z,8.90
2017-09-28T20:48:13.977Z,10.57
2017-09-28T20:50:44.106Z,10.90
2017-09-28T20:53:14.159Z,10.37
2017-09-28T20:55:43.441Z,9.20
2017-09-28T20:58:12.718Z,11.77
2017-09-28T21:00:42.130Z,9.63
2017-09-28T21:03:12.170Z,10.70
2017-09-28T21:05:41.427Z,10.33
2017-09-28T21:08:10.686Z,10.60
2017-09-28T21:10:39.995Z,10.63
2017-09-28T21:13:09.319Z,9.77
2017-09-28T21:15:38.827Z,9.53
2017-09-28T21:18:08.093Z,11.20
2017-09-28T21:20:38.300Z,10.40
2017-09-28T21:23:07.551Z,9.57
2017-09-28T21:25:36.818Z,10.63
2017-09-28T21:28:06.073Z,10.67
2017-09-28T21:30:36.142Z,10.13
2017-09-28T21:33:05.523Z,10.17
2017-09-28T21:35:35.046Z,9.67
2017-09-28T21:38:04.346Z,9.80
2017-09-28T21:40:33.658Z,10.07
2017-09-28T21:43:03.062Z,10.87
2017-09-28T21:45:32.913Z,10.10
2017-09-28T21:48:02.199Z,10.33
2017-09-28T21:50:31.523Z,10.50
2017-09-28T21:53:00.830Z,9.77
2017-09-28T21:55:31.585Z,9.07
2017-09-28T21:58:00.878Z,10.90
2017-09-28T22:00:30.133Z,8.97
2017-09-28T22:02:59.416Z,9.63
2017-09-28T22:05:29.518Z,9.53
2017-09-28T22:07:58.766Z,10.67
2017-09-28T22:10:28.054Z,9.70
2017-09-28T22:12:57.297Z,9.20
2017-09-28T22:15:26.726Z,11.33
2017-09-28T22:17:55.999Z,11.10
2017-09-28T22:20:26.051Z,10.17
2017-09-28T22:22:55.339Z,10.60
2017-09-28T22:25:24.721Z,9.67
2017-09-28T22:27:54.765Z,9.03
2017-09-28T22:30:24.022Z,10.40
2017-09-28T22:32:53.311Z,9.07
2017-09-28T22:35:22.602Z,10.10
2017-09-28T22:37:52.552Z,10.23
2017-09-28T22:40:23.609Z,10.40
2017-09-28T22:42:53.786Z,10.30
2017-09-28T22:45:23.053Z,9.93
2017-09-28T22:47:52.386Z,10.03
2017-09-28T22:50:21.642Z,9.83
2017-09-28T22:52:51.665Z,9.93
2017-09-28T22:55:20.951Z,9.50
2017-09-28T22:57:50.223Z,9.90
2017-09-28T23:00:19.544Z,10.50
2017-09-28T23:02:48.810Z,10.80
2017-09-28T23:05:18.083Z,9.70
2017-09-28T23:07:47.391Z,9.60
2017-09-28T23:10:16.670Z,9.60
2017-09-28T23:12:46.703Z,8.50
2017-09-28T23:15:15.997Z,10.07
2017-09-28T23:17:45.261Z,9.57
2017-09-28T23:20:14.899Z,10.40
2017-09-28T23:22:44.186Z,9.97
2017-09-28T23:25:14.274Z,10.10
2017-09-28T23:27:43.763Z,9.53
2017-09-28T23:30:13.738Z,11.13
2017-09-28T23:32:43.864Z,9.33
2017-09-28T23:35:13.150Z,9.20
2017-09-28T23:37:43.204Z,10.20
2017-09-28T23:40:12.458Z,9.10
2017-09-28T23:42:41.709Z,8.83
2017-09-28T23:45:10.990Z,10.10
2017-09-28T23:47:40.267Z,10.03
2017-09-28T23:50:11.055Z,9.40
2017-09-28T23:52:40.324Z,13.50
2017-09-28T23:55:10.349Z,9.87
2017-09-28T23:57:39.938Z,10.43
